createdAt,value
2022-08-03T00:01:35.474Z,77.24
2022-08-03T00:04:02.329Z,76.48
2022-08-03T00:06:31.686Z,75.95
2022-08-03T00:09:02.079Z,76.05
2022-08-03T00:11:28.912Z,76.33
2022-08-03T00:13:55.869Z,76.37
2022-08-03T00:16:22.614Z,76.11
2022-08-03T00:18:50.041Z,75.89
2022-08-03T00:21:16.948Z,76.04
2022-08-03T00:23:52.565Z,75.98
2022-08-03T00:26:20.206Z,75.93
2022-08-03T00:28:47.085Z,76.66
2022-08-03T00:31:14.015Z,76.01
2022-08-03T00:33:58.267Z,76.48
2022-08-03T00:36:26.816Z,75.80
2022-08-03T00:38:53.873Z,76.65
2022-08-03T00:41:20.805Z,76.38
2022-08-03T00:43:48.087Z,75.80
2022-08-03T00:46:19.262Z,75.38
2022-08-03T00:48:49.288Z,75.53
2022-08-03T00:51:16.423Z,74.79
2022-08-03T00:53:43.642Z,75.24
2022-08-03T00:56:13.373Z,75.78
2022-08-03T00:58:40.405Z,76.78
2022-08-03T01:01:07.558Z,77.01
2022-08-03T01:03:34.836Z,76.65
2022-08-03T01:06:13.304Z,76.68
2022-08-03T01:08:48.127Z,76.85
2022-08-03T01:11:21.397Z,76.34
2022-08-03T01:14:03.895Z,76.53
2022-08-03T01:16:48.431Z,76.25
2022-08-03T01:19:33.665Z,76.15
2022-08-03T01:22:11.222Z,75.59
2022-08-03T01:24:45.071Z,75.27
2022-08-03T01:27:11.810Z,75.93
2022-08-03T01:29:52.884Z,76.01
2022-08-03T01:32:58.936Z,76.46
2022-08-03T01:35:14.767Z,77.46
2022-08-03T01:37:48.022Z,76.84
2022-08-03T01:40:16.320Z,76.46
2022-08-03T01:42:44.973Z,76.45
2022-08-03T01:45:13.116Z,76.41
2022-08-03T01:47:40.878Z,76.39
2022-08-03T01:50:09.175Z,77.42
2022-08-03T01:52:38.326Z,78.57
2022-08-03T01:55:06.188Z,79.76
2022-08-03T01:57:33.954Z,79.70
2022-08-03T02:00:20.962Z,79.47
2022-08-03T02:02:49.677Z,79.23
2022-08-03T02:05:18.077Z,78.23
2022-08-03T02:07:47.061Z,77.32
2022-08-03T02:10:16.772Z,78.30
2022-08-03T02:13:06.433Z,79.51
2022-08-03T02:15:40.370Z,79.03
2022-08-03T02:18:09.073Z,77.92
2022-08-03T02:20:39.527Z,79.09
2022-08-03T02:23:07.534Z,78.75
2022-08-03T02:25:39.124Z,79.26
2022-08-03T02:28:08.901Z,79.27
2022-08-03T02:30:40.900Z,78.52
2022-08-03T02:33:11.470Z,78.56
2022-08-03T02:35:40.294Z,78.76
2022-08-03T02:38:18.008Z,79.21
2022-08-03T02:40:45.557Z,78.54
2022-08-03T02:43:16.745Z,79.12
2022-08-03T02:45:45.962Z,78.69
2022-08-03T02:48:26.675Z,78.71
2022-08-03T02:50:54.564Z,78.54
2022-08-03T02:53:22.924Z,79.11
2022-08-03T02:55:50.644Z,79.23
2022-08-03T02:58:26.354Z,79.22
2022-08-03T03:00:53.962Z,79.47
2022-08-03T03:03:22.427Z,77.79
2022-08-03T03:05:55.557Z,77.53
2022-08-03T03:08:29.753Z,78.43
2022-08-03T03:10:58.556Z,78.56
2022-08-03T03:13:26.048Z,78.84
2022-08-03T03:15:53.733Z,78.26
2022-08-03T03:18:25.330Z,78.40
2022-08-03T03:20:53.342Z,78.32
2022-08-03T03:23:22.062Z,78.35
2022-08-03T03:25:49.176Z,77.94
2022-08-03T03:28:15.880Z,77.45
2022-08-03T03:30:43.205Z,78.11
2022-08-03T03:33:10.064Z,77.80
2022-08-03T03:35:39.396Z,77.23
2022-08-03T03:38:09.105Z,77.50
2022-08-03T03:40:36.382Z,78.13
2022-08-03T03:43:03.477Z,77.24
2022-08-03T03:45:31.332Z,77.22
2022-08-03T03:47:59.918Z,76.54
2022-08-03T03:50:27.768Z,76.78
2022-08-03T03:52:55.548Z,76.51
2022-08-03T03:55:22.582Z,76.25
2022-08-03T03:57:49.316Z,76.25
2022-08-03T04:00:17.226Z,76.50
2022-08-03T04:02:54.537Z,76.94
2022-08-03T04:05:43.003Z,76.73
2022-08-03T04:08:37.431Z,77.27
2022-08-03T04:11:13.060Z,78.99
2022-08-03T04:13:45.256Z,77.75
2022-08-03T04:16:13.466Z,78.75
2022-08-03T04:18:41.829Z,78.01
2022-08-03T04:21:13.682Z,77.90
2022-08-03T04:23:43.143Z,78.45
2022-08-03T04:26:12.187Z,77.86
2022-08-03T04:28:41.707Z,77.48
2022-08-03T04:31:08.607Z,77.76
2022-08-03T04:33:37.555Z,78.53
2022-08-03T04:36:06.217Z,78.15
2022-08-03T04:38:37.137Z,77.98
2022-08-03T04:41:03.930Z,77.72
2022-08-03T04:43:31.905Z,77.52
2022-08-03T04:45:59.602Z,77.58
2022-08-03T04:48:27.043Z,78.05
2022-08-03T04:50:54.269Z,79.21
2022-08-03T04:53:21.526Z,81.30
2022-08-03T04:55:48.403Z,81.31
2022-08-03T04:58:15.232Z,81.40
2022-08-03T05:00:43.173Z,81.75
2022-08-03T05:03:23.790Z,82.26
2022-08-03T05:05:52.308Z,82.90
2022-08-03T05:08:20.606Z,82.32
2022-08-03T05:10:55.579Z,81.87
2022-08-03T05:13:26.088Z,82.82
2022-08-03T05:15:52.873Z,83.28
2022-08-03T05:18:19.891Z,82.89
2022-08-03T05:20:46.685Z,82.29
2022-08-03T05:23:13.464Z,82.90
2022-08-03T05:25:40.117Z,82.15
2022-08-03T05:28:16.612Z,82.17
2022-08-03T05:30:43.411Z,81.92
2022-08-03T05:33:10.068Z,81.25
2022-08-03T05:35:55.881Z,80.45
2022-08-03T05:38:33.890Z,80.08
2022-08-03T05:41:20.403Z,79.87
2022-08-03T05:43:48.679Z,80.29
2022-08-03T05:46:15.591Z,80.43
2022-08-03T05:48:43.145Z,79.98
2022-08-03T05:51:11.965Z,79.89
2022-08-03T05:53:39.140Z,79.51
2022-08-03T05:56:13.543Z,80.41
2022-08-03T05:58:48.291Z,79.98
2022-08-03T06:01:17.983Z,80.67
2022-08-03T06:03:47.202Z,80.63
2022-08-03T06:06:14.265Z,81.06
2022-08-03T06:08:41.569Z,81.29
2022-08-03T06:11:08.464Z,81.05
2022-08-03T06:13:35.323Z,81.27
2022-08-03T06:16:02.094Z,81.56
2022-08-03T06:18:28.728Z,82.38
2022-08-03T06:20:55.396Z,82.12
2022-08-03T06:23:22.072Z,83.11
2022-08-03T06:25:48.866Z,82.89
2022-08-03T06:28:42.540Z,82.09
2022-08-03T06:31:02.414Z,81.84
2022-08-03T06:34:30.602Z,81.22
2022-08-03T06:36:16.248Z,81.81
2022-08-03T06:38:42.889Z,82.66
2022-08-03T06:41:09.643Z,81.77
2022-08-03T06:44:02.510Z,81.30
2022-08-03T06:46:24.314Z,81.86
2022-08-03T06:48:51.114Z,81.02
2022-08-03T06:51:19.706Z,81.16
2022-08-03T06:53:46.366Z,81.68
2022-08-03T06:56:13.015Z,81.01
2022-08-03T06:58:39.686Z,83.12
2022-08-03T07:01:06.336Z,83.01
2022-08-03T07:03:33.078Z,82.71
2022-08-03T07:05:59.817Z,82.95
2022-08-03T07:08:33.774Z,84.71
2022-08-03T07:11:01.376Z,83.67
2022-08-03T07:13:30.298Z,83.70
2022-08-03T07:15:56.974Z,84.31
2022-08-03T07:18:27.567Z,82.90
2022-08-03T07:20:57.090Z,82.25
2022-08-03T07:23:23.723Z,82.83
2022-08-03T07:25:51.052Z,82.69
2022-08-03T07:28:18.095Z,82.27
2022-08-03T07:30:44.696Z,81.89
2022-08-03T07:33:11.452Z,82.34
2022-08-03T07:35:38.125Z,82.14
2022-08-03T07:38:04.768Z,82.56
2022-08-03T07:40:32.003Z,81.73
2022-08-03T07:43:00.046Z,82.18
2022-08-03T07:45:27.070Z,82.91
2022-08-03T07:47:54.214Z,82.73
2022-08-03T07:50:21.634Z,82.87
2022-08-03T07:52:53.780Z,82.36
2022-08-03T07:55:21.589Z,82.99
2022-08-03T07:57:48.928Z,82.12
2022-08-03T08:00:19.726Z,81.94
2022-08-03T08:02:52.950Z,82.47
2022-08-03T08:05:19.663Z,82.39
2022-08-03T08:07:51.587Z,82.53
2022-08-03T08:10:18.520Z,82.47
2022-08-03T08:12:53.076Z,82.73
2022-08-03T08:15:19.985Z,83.13
2022-08-03T08:17:48.888Z,83.94
2022-08-03T08:20:18.221Z,82.88
2022-08-03T08:22:53.301Z,82.71
2022-08-03T08:25:20.114Z,82.71
2022-08-03T08:28:29.458Z,81.28
2022-08-03T08:30:35.351Z,82.25
2022-08-03T08:33:02.145Z,83.22
2022-08-03T08:35:29.026Z,82.84
2022-08-03T08:37:55.686Z,83.54
2022-08-03T08:40:23.625Z,83.10
2022-08-03T08:42:59.070Z,83.23
2022-08-03T08:45:26.058Z,82.93
2022-08-03T08:48:00.203Z,83.21
2022-08-03T08:50:28.680Z,83.11
2022-08-03T08:52:56.613Z,84.88
2022-08-03T08:55:23.885Z,84.61
2022-08-03T08:57:52.879Z,85.63
2022-08-03T09:00:19.550Z,86.26
2022-08-03T09:02:53.490Z,85.76
2022-08-03T09:05:27.793Z,86.51
2022-08-03T09:08:07.593Z,87.18
2022-08-03T09:10:35.015Z,86.57
2022-08-03T09:13:01.832Z,87.54
2022-08-03T09:15:34.319Z,87.68
2022-08-03T09:18:01.751Z,87.18
2022-08-03T09:20:29.921Z,87.56
2022-08-03T09:23:12.998Z,87.54
2022-08-03T09:25:48.616Z,87.61
2022-08-03T09:28:58.172Z,87.23
2022-08-03T09:31:03.797Z,86.30
2022-08-03T09:33:35.903Z,87.43
2022-08-03T09:36:02.992Z,87.12
2022-08-03T09:38:29.600Z,87.42
2022-08-03T09:40:59.931Z,86.77
2022-08-03T09:43:27.957Z,86.74
2022-08-03T09:46:02.855Z,86.78
2022-08-03T09:48:30.842Z,85.74
2022-08-03T09:51:13.026Z,85.58
2022-08-03T09:53:58.579Z,85.85
2022-08-03T09:56:37.495Z,84.99
2022-08-03T09:59:04.167Z,85.33
2022-08-03T10:01:35.382Z,85.64
2022-08-03T10:04:03.900Z,85.55
2022-08-03T10:06:31.274Z,85.67
2022-08-03T10:09:08.561Z,85.16
2022-08-03T10:11:40.904Z,84.90
2022-08-03T10:14:09.797Z,84.90
2022-08-03T10:16:37.577Z,84.31
2022-08-03T10:19:05.188Z,84.31
2022-08-03T10:21:36.768Z,83.63
2022-08-03T10:24:07.992Z,84.17
2022-08-03T10:26:36.784Z,84.06
2022-08-03T10:29:05.657Z,83.87
2022-08-03T10:31:57.764Z,83.71
2022-08-03T10:34:26.474Z,83.53
2022-08-03T10:36:55.736Z,83.94
2022-08-03T10:39:23.172Z,83.74
2022-08-03T10:41:50.791Z,83.27
2022-08-03T10:44:22.243Z,83.80
2022-08-03T10:46:50.538Z,82.94
2022-08-03T10:49:25.488Z,83.18
2022-08-03T10:52:02.672Z,82.59
2022-08-03T10:54:36.470Z,82.44
2022-08-03T10:57:23.450Z,82.30
2022-08-03T10:59:51.536Z,82.08
2022-08-03T11:02:18.951Z,82.13
2022-08-03T11:04:45.732Z,81.80
2022-08-03T11:07:18.610Z,81.46
2022-08-03T11:09:48.840Z,81.34
2022-08-03T11:12:21.460Z,81.27
2022-08-03T11:14:58.715Z,80.70
2022-08-03T11:17:25.505Z,80.20
2022-08-03T11:19:57.814Z,80.30
2022-08-03T11:22:25.305Z,79.82
2022-08-03T11:24:54.310Z,79.39
2022-08-03T11:27:24.852Z,79.98
2022-08-03T11:29:54.259Z,79.27
2022-08-03T11:32:54.532Z,79.23
2022-08-03T11:35:22.613Z,79.38
2022-08-03T11:38:03.058Z,78.77
2022-08-03T11:40:42.562Z,78.80
2022-08-03T11:43:11.109Z,78.94
2022-08-03T11:45:37.889Z,78.36
2022-08-03T11:48:22.777Z,78.66
2022-08-03T11:50:49.895Z,78.54
2022-08-03T11:53:17.478Z,78.21
2022-08-03T11:55:48.953Z,77.59
2022-08-03T11:59:16.587Z,78.04
2022-08-03T12:01:06.894Z,77.36
2022-08-03T12:03:34.482Z,77.82
2022-08-03T12:06:04.953Z,77.71
2022-08-03T12:08:32.758Z,77.57
2022-08-03T12:11:00.796Z,77.39
2022-08-03T12:14:43.824Z,77.16
2022-08-03T12:16:18.976Z,76.87
2022-08-03T12:18:45.871Z,77.31
2022-08-03T12:21:12.840Z,76.95
2022-08-03T12:23:39.580Z,77.00
2022-08-03T12:26:10.147Z,76.61
2022-08-03T12:28:38.387Z,76.54
2022-08-03T12:31:07.598Z,76.42
2022-08-03T12:33:54.224Z,75.89
2022-08-03T12:36:20.926Z,75.55
2022-08-03T12:38:55.029Z,75.30
2022-08-03T12:41:27.737Z,75.60
2022-08-03T12:43:55.291Z,75.10
2022-08-03T12:46:22.020Z,74.25
2022-08-03T12:48:58.472Z,74.59
2022-08-03T12:51:28.443Z,74.20
2022-08-03T12:53:56.359Z,73.99
2022-08-03T12:56:23.169Z,73.92
2022-08-03T12:58:57.419Z,73.63
2022-08-03T13:01:26.044Z,73.02
2022-08-03T13:03:54.093Z,72.93
2022-08-03T13:06:22.552Z,72.86
2022-08-03T13:08:49.778Z,72.52
2022-08-03T13:11:23.012Z,72.92
2022-08-03T13:14:09.839Z,72.05
2022-08-03T13:16:43.353Z,72.04
2022-08-03T13:19:15.704Z,71.93
2022-08-03T13:22:01.865Z,71.96
2022-08-03T13:24:30.358Z,71.99
2022-08-03T13:26:57.246Z,72.37
2022-08-03T13:29:23.934Z,71.74
2022-08-03T13:31:51.277Z,72.00
2022-08-03T13:34:23.070Z,71.57
2022-08-03T13:37:10.874Z,71.22
2022-08-03T13:39:58.354Z,71.17
2022-08-03T13:42:24.823Z,70.83
2022-08-03T13:44:52.587Z,71.10
2022-08-03T13:47:19.676Z,70.79
2022-08-03T13:49:56.942Z,70.92
2022-08-03T13:52:27.858Z,70.67
2022-08-03T13:54:54.612Z,70.89
2022-08-03T13:58:06.435Z,70.75
2022-08-03T14:00:08.483Z,70.86
2022-08-03T14:02:35.332Z,70.38
2022-08-03T14:05:03.307Z,70.59
2022-08-03T14:07:30.027Z,70.52
2022-08-03T14:09:57.113Z,69.92
2022-08-03T14:12:23.777Z,69.37
2022-08-03T14:14:50.429Z,68.99
2022-08-03T14:17:17.295Z,69.42
2022-08-03T14:19:53.301Z,68.82
2022-08-03T14:22:22.992Z,68.90
2022-08-03T14:24:49.651Z,68.77
2022-08-03T14:27:18.353Z,68.46
2022-08-03T14:29:45.107Z,68.60
2022-08-03T14:32:13.459Z,68.31
2022-08-03T14:34:41.713Z,68.85
2022-08-03T14:37:08.533Z,68.26
2022-08-03T14:42:21.875Z,67.85
2022-08-03T14:44:49.521Z,67.37
2022-08-03T14:47:16.259Z,67.75
2022-08-03T14:50:37.524Z,67.42
2022-08-03T14:52:30.156Z,67.32
2022-08-03T14:54:59.724Z,66.99
2022-08-03T14:57:26.608Z,67.03
2022-08-03T14:59:57.704Z,67.13
2022-08-03T15:02:28.078Z,67.00
2022-08-03T15:04:54.800Z,67.01
2022-08-03T15:07:21.815Z,66.62
2022-08-03T15:09:49.368Z,66.64
2022-08-03T15:12:16.015Z,66.75
2022-08-03T15:14:42.665Z,66.28
2022-08-03T15:17:09.633Z,66.52
2022-08-03T15:20:03.404Z,66.49
2022-08-03T15:22:25.456Z,66.61
2022-08-03T15:26:30.292Z,66.29
2022-08-03T15:28:04.155Z,66.42
2022-08-03T15:30:34.053Z,66.54
2022-08-03T15:33:00.704Z,66.54
2022-08-03T15:35:29.071Z,66.56
2022-08-03T15:37:55.903Z,66.37
2022-08-03T15:40:22.953Z,66.48
2022-08-03T15:42:56.390Z,66.40
2022-08-03T15:45:23.265Z,66.71
2022-08-03T15:47:49.960Z,66.16
2022-08-03T15:50:16.603Z,66.25
2022-08-03T15:52:54.993Z,66.18
2022-08-03T15:55:21.743Z,66.48
2022-08-03T15:59:03.436Z,65.96
2022-08-03T16:00:35.380Z,66.40
2022-08-03T16:03:02.667Z,65.81
2022-08-03T16:05:29.673Z,65.86
2022-08-03T16:07:58.625Z,65.69
2022-08-03T16:10:30.911Z,65.98
2022-08-03T16:12:59.111Z,65.87
2022-08-03T16:15:25.798Z,65.69
2022-08-03T16:17:52.549Z,66.00
2022-08-03T16:20:33.859Z,66.10
2022-08-03T16:23:10.489Z,65.53
2022-08-03T16:25:41.610Z,65.74
2022-08-03T16:28:13.847Z,65.47
2022-08-03T16:30:42.364Z,65.60
2022-08-03T16:33:09.374Z,65.78
2022-08-03T16:35:36.175Z,65.77
2022-08-03T16:38:07.817Z,65.63
2022-08-03T16:40:36.688Z,66.03
2022-08-03T16:43:10.604Z,66.00
2022-08-03T16:45:45.335Z,66.21
2022-08-03T16:48:11.971Z,66.00
2022-08-03T16:50:38.586Z,66.03
2022-08-03T16:53:09.170Z,66.07
2022-08-03T16:55:51.634Z,66.10
2022-08-03T16:58:34.868Z,66.18
2022-08-03T17:01:22.603Z,66.34
2022-08-03T17:04:02.046Z,66.42
2022-08-03T17:06:34.106Z,66.21
2022-08-03T17:09:01.463Z,66.68
2022-08-03T17:11:30.038Z,66.79
2022-08-03T17:13:59.759Z,66.72
2022-08-03T17:16:26.438Z,66.88
2022-08-03T17:18:57.698Z,66.30
2022-08-03T17:21:30.850Z,66.65
2022-08-03T17:24:02.827Z,66.11
2022-08-03T17:26:31.384Z,66.62
2022-08-03T17:29:02.326Z,66.62
2022-08-03T17:31:49.076Z,66.38
2022-08-03T17:34:16.916Z,66.55
2022-08-03T17:39:56.881Z,66.28
2022-08-03T17:42:29.071Z,66.24
2022-08-03T17:44:57.611Z,66.00
2022-08-03T17:47:29.355Z,65.98
2022-08-03T17:50:23.930Z,65.83
2022-08-03T17:53:42.748Z,65.41
2022-08-03T17:56:38.736Z,65.37
2022-08-03T17:59:50.317Z,65.44
2022-08-03T18:02:30.777Z,65.03
2022-08-03T18:05:17.219Z,65.12
2022-08-03T18:07:48.369Z,65.52
2022-08-03T18:10:24.617Z,65.36
2022-08-03T18:12:52.467Z,65.25
2022-08-03T18:15:25.406Z,65.29
2022-08-03T18:17:57.954Z,65.17
2022-08-03T18:20:34.400Z,65.31
2022-08-03T18:23:09.019Z,65.19
2022-08-03T18:25:45.353Z,65.45
2022-08-03T18:28:16.196Z,65.24
2022-08-03T18:30:53.976Z,65.32
2022-08-03T18:34:18.153Z,65.38
2022-08-03T18:36:09.504Z,65.65
2022-08-03T18:38:36.707Z,65.44
2022-08-03T18:41:06.057Z,66.20
2022-08-03T18:44:07.285Z,66.31
2022-08-03T18:46:46.291Z,65.85
2022-08-03T18:49:35.002Z,66.50
2022-08-03T18:52:12.354Z,66.46
2022-08-03T18:55:07.347Z,66.31
2022-08-03T18:57:46.398Z,66.61
2022-08-03T19:00:23.941Z,66.44
2022-08-03T19:03:05.133Z,66.37
2022-08-03T19:05:55.137Z,66.22
2022-08-03T19:08:25.990Z,66.86
2022-08-03T19:10:57.754Z,66.65
2022-08-03T19:13:36.108Z,66.67
2022-08-03T19:16:08.548Z,66.55
2022-08-03T19:18:37.591Z,66.67
2022-08-03T19:21:12.817Z,66.63
2022-08-03T19:23:44.805Z,66.98
2022-08-03T19:26:30.118Z,67.46
2022-08-03T19:28:57.623Z,67.21
2022-08-03T19:31:31.044Z,67.34
2022-08-03T19:34:03.033Z,67.40
2022-08-03T19:36:31.726Z,67.80
2022-08-03T19:38:58.623Z,68.39
2022-08-03T19:41:31.097Z,68.67
2022-08-03T19:44:19.993Z,68.18
2022-08-03T19:46:50.359Z,68.30
2022-08-03T19:49:20.315Z,68.95
2022-08-03T19:52:01.083Z,69.46
2022-08-03T19:54:35.924Z,68.66
2022-08-03T19:57:03.086Z,69.07
2022-08-03T19:59:34.605Z,69.15
2022-08-03T20:02:04.803Z,69.07
2022-08-03T20:04:32.361Z,70.05
2022-08-03T20:06:59.731Z,69.77
2022-08-03T20:09:30.495Z,69.97
2022-08-03T20:11:57.611Z,69.62
2022-08-03T20:14:26.627Z,69.60
2022-08-03T20:16:53.830Z,69.61
2022-08-03T20:19:20.554Z,69.05
2022-08-03T20:21:48.697Z,69.18
2022-08-03T20:24:41.941Z,68.99
2022-08-03T20:27:15.540Z,68.67
2022-08-03T20:30:06.206Z,68.68
2022-08-03T20:32:34.536Z,67.99
2022-08-03T20:35:01.214Z,68.07
2022-08-03T20:37:27.904Z,67.61
2022-08-03T20:39:57.279Z,68.35
2022-08-03T20:42:24.191Z,67.44
2022-08-03T20:47:50.308Z,67.95
2022-08-03T20:50:31.485Z,67.89
2022-08-03T20:52:59.214Z,68.05
2022-08-03T20:55:47.888Z,68.10
2022-08-03T20:58:18.983Z,68.04
2022-08-03T21:00:46.621Z,68.11
2022-08-03T21:03:18.242Z,68.38
2022-08-03T21:05:51.793Z,68.61
2022-08-03T21:08:22.492Z,68.52
2022-08-03T21:10:50.371Z,68.30
2022-08-03T21:13:12.284Z,67.49
2022-08-03T21:13:26.630Z,68.81
2022-08-03T21:16:06.493Z,69.26
2022-08-03T21:19:00.542Z,69.23
2022-08-03T21:21:30.780Z,69.51
2022-08-03T21:23:58.569Z,69.17
2022-08-03T21:26:26.050Z,69.13
2022-08-03T21:28:54.689Z,69.05
2022-08-03T21:31:25.460Z,68.98
2022-08-03T21:33:56.696Z,68.62
2022-08-03T21:36:23.811Z,68.59
2022-08-03T21:38:56.160Z,68.75
2022-08-03T21:41:24.427Z,68.80
2022-08-03T21:43:51.043Z,69.02
2022-08-03T21:46:19.116Z,68.77
2022-08-03T21:48:47.497Z,69.15
2022-08-03T21:51:16.621Z,69.39
2022-08-03T21:54:04.281Z,69.04
2022-08-03T21:56:32.153Z,69.18
2022-08-03T21:59:05.509Z,69.51
2022-08-03T22:01:35.259Z,69.61
2022-08-03T22:04:03.854Z,69.55
2022-08-03T22:06:30.480Z,69.34
2022-08-03T22:08:57.127Z,69.68
2022-08-03T22:11:23.789Z,69.17
2022-08-03T22:13:50.800Z,68.75
2022-08-03T22:16:17.745Z,69.47
2022-08-03T22:18:45.195Z,70.05
2022-08-03T22:21:12.595Z,70.28
2022-08-03T22:23:40.711Z,69.89
2022-08-03T22:26:11.012Z,69.53
2022-08-03T22:28:37.822Z,70.07
2022-08-03T22:31:30.891Z,69.15
2022-08-03T22:33:52.775Z,68.13
2022-08-03T22:36:20.726Z,66.68
2022-08-03T22:38:47.854Z,66.66
2022-08-03T22:41:17.628Z,66.61
2022-08-03T22:43:44.405Z,66.90
2022-08-03T22:46:15.620Z,66.56
2022-08-03T22:48:47.539Z,66.22
2022-08-03T22:51:15.535Z,65.95
2022-08-03T22:53:42.231Z,65.79
2022-08-03T22:56:09.151Z,65.20
2022-08-03T22:58:35.937Z,64.66
2022-08-03T23:01:04.384Z,63.88
2022-08-03T23:04:01.040Z,63.24
2022-08-03T23:06:19.938Z,62.79
2022-08-03T23:08:47.680Z,62.22
2022-08-03T23:11:17.783Z,61.96
2022-08-03T23:13:46.429Z,61.65
2022-08-03T23:16:14.745Z,62.10
2022-08-03T23:18:42.697Z,62.00
2022-08-03T23:21:11.258Z,61.50
2022-08-03T23:23:43.837Z,61.52
2022-08-03T23:26:11.681Z,61.35
2022-08-03T23:28:38.601Z,60.82
2022-08-03T23:31:08.016Z,60.19
2022-08-03T23:33:37.535Z,59.68
2022-08-03T23:36:28.660Z,59.71
2022-08-03T23:38:53.627Z,59.82
2022-08-03T23:41:20.354Z,58.65
2022-08-03T23:43:51.792Z,58.68
2022-08-03T23:46:21.414Z,59.39
2022-08-03T23:48:48.119Z,59.75
2022-08-03T23:51:27.596Z,59.15
2022-08-03T23:54:14.510Z,59.41
2022-08-03T23:56:41.379Z,59.34
2022-08-03T23:59:17.045Z,59.53
